createdAt,value
2018-03-25T00:00:41.971Z,3.7
2018-03-25T00:01:41.696Z,3.63
2018-03-25T00:02:41.931Z,3.63
2018-03-25T00:03:41.420Z,3.53
2018-03-25T00:04:41.908Z,3.55
2018-03-25T00:05:41.938Z,3.62
2018-03-25T00:06:41.898Z,3.59
2018-03-25T00:07:41.692Z,3.58
2018-03-25T00:08:41.878Z,3.55
2018-03-25T00:09:41.876Z,3.51
2018-03-25T00:10:41.889Z,3.58
2018-03-25T00:11:41.351Z,3.6
2018-03-25T00:12:41.589Z,3.58
2018-03-25T00:13:41.586Z,3.58
2018-03-25T00:14:41.840Z,3.58
2018-03-25T00:15:41.815Z,3.63
2018-03-25T00:16:41.935Z,3.63
2018-03-25T00:17:41.690Z,3.62
2018-03-25T00:18:41.790Z,3.62
2018-03-25T00:19:41.798Z,3.53
2018-03-25T00:20:41.528Z,3.59
2018-03-25T00:21:41.526Z,3.48
2018-03-25T00:22:41.493Z,3.55
2018-03-25T00:23:41.804Z,3.5
2018-03-25T00:24:41.736Z,3.55
2018-03-25T00:25:41.735Z,3.55
2018-03-25T00:26:41.716Z,3.48
2018-03-25T00:27:41.532Z,3.34
2018-03-25T00:28:41.697Z,3.44
2018-03-25T00:29:41.701Z,3.37
2018-03-25T00:30:41.437Z,3.34
2018-03-25T00:31:41.661Z,3.28
2018-03-25T00:32:41.705Z,3.25
2018-03-25T00:33:41.644Z,3.19
2018-03-25T00:34:41.398Z,3.16
2018-03-25T00:35:41.650Z,3.23
2018-03-25T00:36:41.620Z,3.11
2018-03-25T00:37:41.609Z,3.11
2018-03-25T00:38:41.357Z,3.14
2018-03-25T00:39:41.391Z,3.04
2018-03-25T00:40:41.581Z,3.18
2018-03-25T00:41:41.342Z,3.16
2018-03-25T00:42:41.316Z,3.18
2018-03-25T00:43:41.318Z,3.13
2018-03-25T00:44:41.311Z,3.16
2018-03-25T00:45:41.540Z,3.13
2018-03-25T00:46:41.291Z,3.13
2018-03-25T00:47:43.119Z,3.18
2018-03-25T00:48:41.282Z,3.23
2018-03-25T00:49:40.985Z,3.19
2018-03-25T00:50:41.277Z,3.23
2018-03-25T00:51:41.487Z,3.1
2018-03-25T00:52:40.959Z,3.13
2018-03-25T00:53:41.231Z,3.18
2018-03-25T00:54:41.264Z,3.11
2018-03-25T00:55:41.441Z,3.11
2018-03-25T00:56:41.431Z,3.13
2018-03-25T00:57:41.170Z,3.14
2018-03-25T00:58:41.414Z,3.18
2018-03-25T00:59:40.891Z,3.13
2018-03-25T01:00:41.417Z,3.14
2018-03-25T01:01:40.874Z,3.14
2018-03-25T01:02:41.144Z,3.14
2018-03-25T01:03:41.386Z,3.11
2018-03-25T01:04:41.136Z,3.1
2018-03-25T01:05:41.102Z,3
2018-03-25T01:06:41.095Z,3.01
2018-03-25T01:07:41.462Z,2.93
2018-03-25T01:08:41.344Z,2.98
2018-03-25T01:09:41.330Z,2.89
2018-03-25T01:10:41.313Z,2.9
2018-03-25T01:11:40.777Z,2.97
2018-03-25T01:12:41.032Z,2.89
2018-03-25T01:13:41.301Z,2.97
2018-03-25T01:14:41.291Z,2.9
2018-03-25T01:15:40.739Z,2.93
2018-03-25T01:16:40.993Z,2.9
2018-03-25T01:17:41.252Z,2.85
2018-03-25T01:18:40.966Z,2.83
2018-03-25T01:19:41.248Z,2.83
2018-03-25T01:20:41.209Z,2.85
2018-03-25T01:21:41.206Z,2.89
2018-03-25T01:22:41.204Z,2.79
2018-03-25T01:23:40.922Z,2.77
2018-03-25T01:24:40.922Z,2.8
2018-03-25T01:25:41.233Z,2.68
2018-03-25T01:26:41.151Z,2.71
2018-03-25T01:27:41.162Z,2.71
2018-03-25T01:28:40.874Z,2.75
2018-03-25T01:29:40.870Z,2.79
2018-03-25T01:30:40.607Z,2.65
2018-03-25T01:31:41.100Z,2.67
2018-03-25T01:32:41.225Z,2.64
2018-03-25T01:33:41.095Z,2.6
2018-03-25T01:34:41.069Z,2.54
2018-03-25T01:35:41.076Z,2.6
2018-03-25T01:36:41.107Z,2.61
2018-03-25T01:37:40.790Z,2.61
2018-03-25T01:38:40.775Z,2.61
2018-03-25T01:39:41.041Z,2.6
2018-03-25T01:40:41.018Z,2.6
2018-03-25T01:41:41.023Z,2.56
2018-03-25T01:42:41.005Z,2.65
2018-03-25T01:43:40.734Z,2.6
2018-03-25T01:44:40.720Z,2.71
2018-03-25T01:45:40.970Z,2.6
2018-03-25T01:46:40.955Z,2.6
2018-03-25T01:47:40.694Z,2.6
2018-03-25T01:48:40.936Z,2.57
2018-03-25T01:49:40.926Z,2.6
2018-03-25T01:50:40.407Z,2.64
2018-03-25T01:51:40.909Z,2.56
2018-03-25T01:52:40.644Z,2.6
2018-03-25T01:53:40.884Z,2.57
2018-03-25T01:54:40.630Z,2.6
2018-03-25T01:55:40.870Z,2.6
2018-03-25T01:56:40.856Z,2.61
2018-03-25T01:57:40.843Z,2.6
2018-03-25T01:58:40.340Z,2.6
2018-03-25T01:59:40.573Z,2.65
2018-03-25T02:00:40.818Z,2.6
2018-03-25T02:01:40.803Z,2.65
2018-03-25T02:02:40.799Z,2.65
2018-03-25T02:03:40.786Z,2.6
2018-03-25T02:04:40.516Z,2.51
2018-03-25T02:05:40.511Z,2.61
2018-03-25T02:06:40.753Z,2.62
2018-03-25T02:07:40.756Z,2.53
2018-03-25T02:08:40.758Z,2.65
2018-03-25T02:09:40.730Z,2.61
2018-03-25T02:10:40.711Z,2.54
2018-03-25T02:11:40.771Z,2.6
2018-03-25T02:12:40.712Z,2.5
2018-03-25T02:13:40.717Z,2.54
2018-03-25T02:14:40.678Z,2.42
2018-03-25T02:15:40.668Z,2.39
2018-03-25T02:16:40.670Z,2.42
2018-03-25T02:17:40.396Z,2.42
2018-03-25T02:18:42.482Z,2.43
2018-03-25T02:19:40.634Z,2.35
2018-03-25T02:20:40.108Z,2.39
2018-03-25T02:21:40.353Z,2.36
2018-03-25T02:22:40.593Z,2.24
2018-03-25T02:23:40.591Z,2.24
2018-03-25T02:24:40.583Z,2.29
2018-03-25T02:25:40.316Z,2.31
2018-03-25T02:26:40.575Z,2.26
2018-03-25T02:27:40.549Z,2.35
2018-03-25T02:28:40.287Z,2.26
2018-03-25T02:29:40.016Z,2.22
2018-03-25T02:30:40.577Z,2.33
2018-03-25T02:31:40.538Z,2.29
2018-03-25T02:32:40.583Z,2.36
2018-03-25T02:33:40.553Z,2.26
2018-03-25T02:34:40.234Z,2.35
2018-03-25T02:35:40.469Z,2.39
2018-03-25T02:36:40.207Z,2.29
2018-03-25T02:37:40.188Z,2.18
2018-03-25T02:38:40.463Z,2.26
2018-03-25T02:39:40.500Z,2.24
2018-03-25T02:40:40.168Z,2.13
2018-03-25T02:41:40.425Z,2.13
2018-03-25T02:42:40.406Z,2.22
2018-03-25T02:43:40.403Z,2.24
2018-03-25T02:44:40.405Z,2.18
2018-03-25T02:45:40.116Z,2.13
2018-03-25T02:46:40.358Z,2.15
2018-03-25T02:47:40.355Z,2.24
2018-03-25T02:48:40.883Z,2.13
2018-03-25T02:49:40.096Z,2.24
2018-03-25T02:50:40.067Z,2.25
2018-03-25T02:51:40.327Z,2.2
2018-03-25T02:52:40.321Z,2.29
2018-03-25T02:53:40.286Z,2.28
2018-03-25T02:54:40.031Z,2.17
2018-03-25T02:55:40.278Z,2.17
2018-03-25T02:56:40.255Z,2.2
2018-03-25T02:57:40.248Z,2.24
2018-03-25T02:58:40.253Z,2.26
2018-03-25T02:59:40.232Z,2.15
2018-03-25T03:00:40.229Z,2.18
2018-03-25T03:01:40.206Z,2.1
2018-03-25T03:02:40.449Z,2.1
2018-03-25T03:03:39.935Z,2.26
2018-03-25T03:04:39.931Z,2.26
2018-03-25T03:05:39.910Z,2.33
2018-03-25T03:06:39.904Z,2.24
2018-03-25T03:07:39.887Z,2.17
2018-03-25T03:08:39.879Z,2.25
2018-03-25T03:09:40.128Z,2.1
2018-03-25T03:10:40.109Z,2.13
2018-03-25T03:11:40.109Z,2.17
2018-03-25T03:12:39.837Z,2.15
2018-03-25T03:13:40.091Z,2.14
2018-03-25T03:14:40.064Z,2.13
2018-03-25T03:15:40.057Z,2.15
2018-03-25T03:16:40.059Z,2.1
2018-03-25T03:17:39.799Z,1.99
2018-03-25T03:18:40.093Z,2.08
2018-03-25T03:19:39.761Z,2.07
2018-03-25T03:20:39.753Z,2.17
2018-03-25T03:21:39.486Z,2.13
2018-03-25T03:22:39.989Z,2.2
2018-03-25T03:23:39.740Z,2.1
2018-03-25T03:24:39.970Z,2.1
2018-03-25T03:25:39.967Z,2.1
2018-03-25T03:26:39.946Z,2.13
2018-03-25T03:27:39.683Z,2.11
2018-03-25T03:28:39.923Z,2.08
2018-03-25T03:29:39.923Z,2.08
2018-03-25T03:30:39.680Z,2.06
2018-03-25T03:31:39.659Z,2.14
2018-03-25T03:32:39.643Z,2.02
2018-03-25T03:33:39.890Z,2.04
2018-03-25T03:34:39.870Z,2.04
2018-03-25T03:35:39.865Z,2
2018-03-25T03:36:39.587Z,2.02
2018-03-25T03:37:39.836Z,2.08
2018-03-25T03:38:39.819Z,2
2018-03-25T03:39:39.811Z,2.08
2018-03-25T03:40:39.563Z,2.11
2018-03-25T03:41:39.564Z,2.04
2018-03-25T03:42:39.277Z,2.07
2018-03-25T03:43:39.514Z,2.04
2018-03-25T03:44:39.785Z,2.08
2018-03-25T03:45:39.510Z,2.08
2018-03-25T03:46:39.754Z,2.06
2018-03-25T03:47:39.761Z,2.14
2018-03-25T03:48:39.209Z,2.14
2018-03-25T03:49:39.914Z,2.13
2018-03-25T03:50:39.705Z,2.07
2018-03-25T03:51:39.689Z,2.13
2018-03-25T03:52:39.428Z,2.1
2018-03-25T03:53:39.669Z,2.14
2018-03-25T03:54:39.145Z,2.08
2018-03-25T03:55:39.640Z,2.14
2018-03-25T03:56:39.647Z,2.14
2018-03-25T03:57:39.385Z,2.22
2018-03-25T03:58:39.366Z,2.07
2018-03-25T03:59:39.608Z,2.17
2018-03-25T04:00:39.340Z,2.17
2018-03-25T04:01:39.340Z,2.22
2018-03-25T04:02:39.336Z,2.29
2018-03-25T04:03:39.312Z,2.14
2018-03-25T04:04:41.051Z,2.15
2018-03-25T04:05:39.544Z,2.26
2018-03-25T04:06:39.529Z,2.11
2018-03-25T04:07:39.333Z,2.13
2018-03-25T04:08:39.256Z,2.13
2018-03-25T04:09:39.260Z,2.17
2018-03-25T04:10:39.511Z,2.07
2018-03-25T04:11:39.229Z,2.13
2018-03-25T04:12:39.480Z,2.1
2018-03-25T04:13:39.462Z,2.08
2018-03-25T04:14:39.458Z,2.11
2018-03-25T04:15:39.452Z,2.04
2018-03-25T04:16:39.434Z,2.13
2018-03-25T04:17:39.172Z,2.07
2018-03-25T04:18:39.409Z,2.04
2018-03-25T04:19:39.140Z,1.99
2018-03-25T04:20:39.392Z,1.91
2018-03-25T04:21:39.124Z,1.94
2018-03-25T04:22:39.438Z,1.95
2018-03-25T04:23:39.370Z,2.02
2018-03-25T04:24:38.837Z,2
2018-03-25T04:25:39.084Z,1.87
2018-03-25T04:26:39.078Z,1.99
2018-03-25T04:27:39.328Z,1.87
2018-03-25T04:28:39.071Z,1.87
2018-03-25T04:29:39.045Z,2.04
2018-03-25T04:30:39.029Z,2
2018-03-25T04:31:39.287Z,2.1
2018-03-25T04:32:38.759Z,2.13
2018-03-25T04:33:38.752Z,2.17
2018-03-25T04:34:38.995Z,2.13
2018-03-25T04:35:39.225Z,2
2018-03-25T04:36:39.220Z,2.07
2018-03-25T04:37:39.232Z,2.04
2018-03-25T04:38:39.204Z,2.14
2018-03-25T04:39:39.194Z,2.04
2018-03-25T04:40:38.919Z,2.13
2018-03-25T04:41:38.913Z,2.17
2018-03-25T04:42:39.172Z,2.15
2018-03-25T04:43:39.152Z,2.11
2018-03-25T04:44:39.143Z,2.24
2018-03-25T04:45:38.878Z,2.26
2018-03-25T04:46:38.857Z,2.32
2018-03-25T04:47:39.103Z,2.42
2018-03-25T04:48:39.092Z,2.47
2018-03-25T04:49:39.081Z,2.51
2018-03-25T04:50:39.076Z,2.5
2018-03-25T04:51:39.248Z,2.51
2018-03-25T04:52:39.076Z,2.53
2018-03-25T04:53:39.048Z,2.64
2018-03-25T04:54:38.785Z,2.56
2018-03-25T04:55:38.767Z,2.67
2018-03-25T04:56:38.865Z,2.6
2018-03-25T04:57:39.020Z,2.61
2018-03-25T04:58:38.987Z,2.61
2018-03-25T04:59:38.720Z,2.64
2018-03-25T05:00:38.971Z,2.54
2018-03-25T05:01:38.969Z,2.61
2018-03-25T05:02:38.949Z,2.61
2018-03-25T05:03:38.755Z,2.61
2018-03-25T05:04:38.929Z,2.56
2018-03-25T05:05:38.716Z,2.5
2018-03-25T05:06:38.651Z,2.53
2018-03-25T05:07:38.909Z,2.51
2018-03-25T05:08:38.880Z,2.53
2018-03-25T05:09:38.878Z,2.53
2018-03-25T05:10:38.357Z,2.53
2018-03-25T05:11:38.852Z,2.5
2018-03-25T05:12:38.857Z,2.51
2018-03-25T05:13:38.859Z,2.53
2018-03-25T05:14:38.828Z,2.43
2018-03-25T05:15:38.813Z,2.43
2018-03-25T05:16:38.562Z,2.44
2018-03-25T05:17:38.320Z,2.44
2018-03-25T05:18:38.784Z,2.49
2018-03-25T05:19:38.523Z,2.31
2018-03-25T05:20:38.712Z,2.43
2018-03-25T05:21:38.748Z,2.32
2018-03-25T05:22:38.742Z,2.35
2018-03-25T05:23:38.476Z,2.25
2018-03-25T05:24:38.726Z,2.2
2018-03-25T05:25:38.453Z,2.22
2018-03-25T05:26:38.711Z,2.22
2018-03-25T05:27:38.691Z,2.26
2018-03-25T05:28:38.679Z,2.28
2018-03-25T05:29:38.682Z,2.35
2018-03-25T05:30:38.653Z,2.43
2018-03-25T05:31:38.710Z,2.42
2018-03-25T05:32:38.381Z,2.5
2018-03-25T05:33:38.655Z,2.51
2018-03-25T05:34:38.629Z,2.64
2018-03-25T05:35:38.407Z,2.6
2018-03-25T05:36:38.086Z,2.64
2018-03-25T05:37:38.594Z,2.77
2018-03-25T05:38:38.316Z,2.71
2018-03-25T05:39:38.573Z,2.74
2018-03-25T05:40:38.721Z,2.71
2018-03-25T05:41:38.544Z,2.68
2018-03-25T05:42:38.283Z,2.69
2018-03-25T05:43:38.524Z,2.79
2018-03-25T05:44:38.414Z,2.71
2018-03-25T05:45:38.269Z,2.71
2018-03-25T05:46:37.999Z,2.72
2018-03-25T05:47:38.516Z,2.72
2018-03-25T05:48:38.227Z,2.72
2018-03-25T05:49:38.467Z,2.68
2018-03-25T05:50:38.205Z,2.79
2018-03-25T05:51:38.489Z,2.86
2018-03-25T05:52:38.438Z,2.89
2018-03-25T05:53:38.162Z,2.93
2018-03-25T05:54:38.425Z,3.01
2018-03-25T05:55:38.431Z,3.13
2018-03-25T05:56:38.394Z,3.1
2018-03-25T05:57:38.391Z,3.26
2018-03-25T05:58:38.378Z,3.26
2018-03-25T05:59:38.123Z,3.23
2018-03-25T06:00:38.359Z,3.31
2018-03-25T06:01:38.095Z,3.4
2018-03-25T06:02:38.337Z,3.42
2018-03-25T06:03:38.341Z,3.45
2018-03-25T06:04:38.376Z,3.53
2018-03-25T06:05:38.311Z,3.47
2018-03-25T06:06:38.249Z,3.58
2018-03-25T06:07:38.285Z,3.6
2018-03-25T06:08:37.779Z,3.7
2018-03-25T06:09:38.265Z,3.66
2018-03-25T06:10:38.007Z,3.81
2018-03-25T06:11:38.020Z,3.86
2018-03-25T06:12:38.264Z,3.86
2018-03-25T06:13:37.981Z,3.94
2018-03-25T06:14:38.227Z,3.91
2018-03-25T06:15:38.279Z,3.91
2018-03-25T06:16:37.704Z,3.96
2018-03-25T06:17:37.941Z,3.94
2018-03-25T06:27:21.413Z,4.16
2018-03-25T06:28:20.887Z,4.19
2018-03-25T06:29:21.131Z,4.12
2018-03-25T06:30:20.873Z,4.23
2018-03-25T06:31:21.162Z,4.13
2018-03-25T06:32:21.090Z,4.19
2018-03-25T06:33:21.083Z,4.19
2018-03-25T06:34:21.096Z,4.05
2018-03-25T06:35:21.076Z,4.06
2018-03-25T06:36:21.052Z,4.08
2018-03-25T06:37:20.788Z,4.16
2018-03-25T06:38:21.045Z,4.22
2018-03-25T06:39:21.024Z,4.16
2018-03-25T06:40:20.773Z,4.12
2018-03-25T06:41:22.191Z,4.16
2018-03-25T06:42:21.002Z,4.1
2018-03-25T06:43:21.022Z,4.22
2018-03-25T06:44:21.038Z,4.2
2018-03-25T06:45:20.790Z,4.14
2018-03-25T06:46:20.713Z,4.19
2018-03-25T06:47:20.957Z,4.3
2018-03-25T06:48:20.993Z,4.38
2018-03-25T06:49:20.672Z,4.38
2018-03-25T06:50:21.084Z,4.55
2018-03-25T06:51:20.657Z,4.49
2018-03-25T06:52:20.656Z,4.71
2018-03-25T06:53:20.931Z,4.96
2018-03-25T06:54:20.684Z,5.28
2018-03-25T06:55:21.090Z,5.82
2018-03-25T06:56:20.884Z,6.07
2018-03-25T06:57:25.016Z,6.33
2018-03-25T06:58:20.608Z,6.6
2018-03-25T06:59:20.857Z,6.52
2018-03-25T07:00:20.853Z,6.69
2018-03-25T07:01:20.884Z,6.7
2018-03-25T07:02:20.578Z,6.88
2018-03-25T07:03:20.856Z,6.75
2018-03-25T07:04:20.823Z,6.85
2018-03-25T07:05:20.948Z,6.96
2018-03-25T07:06:20.834Z,7.15
2018-03-25T07:07:20.553Z,7.31
2018-03-25T07:08:20.539Z,7.15
2018-03-25T07:09:20.788Z,7.07
2018-03-25T07:10:21.451Z,7.07
2018-03-25T07:11:20.782Z,7.15
2018-03-25T07:12:20.541Z,7.21
2018-03-25T07:13:20.538Z,7.25
2018-03-25T07:14:20.766Z,7.43
2018-03-25T07:15:20.823Z,7.76
2018-03-25T07:16:20.764Z,8.16
2018-03-25T07:17:20.758Z,8.41
2018-03-25T07:18:20.514Z,8.71
2018-03-25T07:19:20.481Z,8.95
2018-03-25T07:20:20.545Z,9.14
2018-03-25T07:21:20.477Z,9.47
2018-03-25T07:22:20.734Z,9.74
2018-03-25T07:23:20.511Z,9.86
2018-03-25T07:24:20.749Z,10.17
2018-03-25T07:25:20.718Z,10.2
2018-03-25T07:26:20.461Z,10.22
2018-03-25T07:27:20.204Z,10.57
2018-03-25T07:28:20.449Z,10.6
2018-03-25T07:29:20.458Z,10.68
2018-03-25T07:30:20.709Z,10.78
2018-03-25T07:31:20.707Z,10.99
2018-03-25T07:32:20.701Z,11.19
2018-03-25T07:33:20.453Z,11.43
2018-03-25T07:34:20.720Z,11.4
2018-03-25T07:35:20.628Z,11.57
2018-03-25T07:36:20.196Z,11.91
2018-03-25T07:37:20.483Z,12.03
2018-03-25T07:38:20.440Z,11.97
2018-03-25T07:39:20.692Z,12.12
2018-03-25T07:40:20.623Z,12.17
2018-03-25T07:41:20.444Z,12.22
2018-03-25T07:42:20.701Z,12.36
2018-03-25T07:43:20.444Z,12.35
2018-03-25T07:44:20.731Z,12.36
2018-03-25T07:45:20.628Z,12.43
2018-03-25T07:46:20.450Z,12.47
2018-03-25T07:47:20.710Z,12.6
2018-03-25T07:48:20.189Z,12.49
2018-03-25T07:49:20.699Z,12.32
2018-03-25T07:50:20.834Z,12.17
2018-03-25T07:51:20.521Z,12.24
2018-03-25T07:52:20.446Z,12.47
2018-03-25T07:53:20.718Z,12.61
2018-03-25T07:54:20.588Z,12.68
2018-03-25T07:55:20.460Z,12.7
2018-03-25T07:56:20.718Z,12.7
2018-03-25T07:57:20.719Z,12.8
2018-03-25T07:58:21.057Z,12.9
2018-03-25T07:59:20.449Z,13.03
2018-03-25T08:00:20.710Z,13.15
2018-03-25T08:01:20.712Z,13.04
2018-03-25T08:02:20.454Z,13
2018-03-25T08:03:20.721Z,13.04
2018-03-25T08:04:20.470Z,13.2
2018-03-25T08:05:20.467Z,13.39
2018-03-25T08:06:20.708Z,13.52
2018-03-25T08:07:20.727Z,13.77
2018-03-25T08:08:20.724Z,13.89
2018-03-25T08:09:20.460Z,14.11
2018-03-25T08:10:20.759Z,14.2
2018-03-25T08:11:20.208Z,14.41
2018-03-25T08:12:20.726Z,14.37
2018-03-25T08:13:20.777Z,14.29
2018-03-25T08:14:20.485Z,14.4
2018-03-25T08:15:20.724Z,14.2
2018-03-25T08:16:20.730Z,14.14
2018-03-25T08:17:20.727Z,14.11
2018-03-25T08:18:21.547Z,14.25
2018-03-25T08:19:20.243Z,14.4
2018-03-25T08:20:20.738Z,14.58
2018-03-25T08:21:20.737Z,14.36
2018-03-25T08:22:20.741Z,14.43
2018-03-25T08:23:20.747Z,14.44
2018-03-25T08:24:20.233Z,14.51
2018-03-25T08:25:20.752Z,14.55
2018-03-25T08:26:20.875Z,14.43
2018-03-25T08:27:20.754Z,14.2
2018-03-25T08:28:21.599Z,13.85
2018-03-25T08:29:20.784Z,13.44
2018-03-25T08:30:20.760Z,12.73
2018-03-25T08:31:20.501Z,12.21
2018-03-25T08:32:20.528Z,11.73
2018-03-25T08:33:20.769Z,11.26
2018-03-25T08:34:20.517Z,10.92
2018-03-25T08:35:20.515Z,10.64
2018-03-25T08:36:20.512Z,10.41
2018-03-25T08:37:20.769Z,10.33
2018-03-25T08:38:20.771Z,10.09
2018-03-25T08:39:20.766Z,10.02
2018-03-25T08:40:20.562Z,9.95
2018-03-25T08:41:20.517Z,9.86
2018-03-25T08:42:20.515Z,9.89
2018-03-25T08:43:20.766Z,9.87
2018-03-25T08:44:20.767Z,9.84
2018-03-25T08:45:20.520Z,9.8
2018-03-25T08:46:20.784Z,9.66
2018-03-25T08:47:20.762Z,9.54
2018-03-25T08:48:20.769Z,9.51
2018-03-25T08:49:20.509Z,9.43
2018-03-25T08:50:20.901Z,9.43
2018-03-25T08:51:20.515Z,9.5
2018-03-25T08:52:20.758Z,9.51
2018-03-25T08:53:20.504Z,9.58
2018-03-25T08:54:20.514Z,9.64
2018-03-25T08:55:20.732Z,9.74
2018-03-25T08:56:20.777Z,9.86
2018-03-25T08:57:20.488Z,9.87
2018-03-25T08:58:20.561Z,9.97
2018-03-25T08:59:20.238Z,9.99
2018-03-25T09:00:20.744Z,10.07
2018-03-25T09:01:20.481Z,10.13
2018-03-25T09:02:20.745Z,10.12
2018-03-25T09:03:20.483Z,10.09
2018-03-25T09:04:20.484Z,10.2
2018-03-25T09:05:20.475Z,10.3
2018-03-25T09:06:20.720Z,10.37
2018-03-25T09:07:20.466Z,10.38
2018-03-25T09:08:20.465Z,10.37
2018-03-25T09:09:20.722Z,10.33
2018-03-25T09:10:20.959Z,10.34
2018-03-25T09:11:20.726Z,10.46
2018-03-25T09:12:20.472Z,10.42
2018-03-25T09:13:20.451Z,10.44
2018-03-25T09:14:20.701Z,10.44
2018-03-25T09:15:20.486Z,10.44
2018-03-25T09:16:20.756Z,10.56
2018-03-25T09:17:20.699Z,10.64
2018-03-25T09:18:20.434Z,10.59
2018-03-25T09:19:20.438Z,10.74
2018-03-25T09:20:20.887Z,10.72
2018-03-25T09:21:20.698Z,10.75
2018-03-25T09:22:20.441Z,10.82
2018-03-25T09:23:20.682Z,10.82
2018-03-25T09:24:20.685Z,10.81
2018-03-25T09:25:20.413Z,10.96
2018-03-25T09:26:20.676Z,11.05
2018-03-25T09:27:20.419Z,11.07
2018-03-25T09:28:20.778Z,11.1
2018-03-25T09:29:20.705Z,11.18
2018-03-25T09:30:20.464Z,11.27
2018-03-25T09:31:20.660Z,11.18
2018-03-25T09:32:20.651Z,11.22
2018-03-25T09:33:20.654Z,11.22
2018-03-25T09:34:20.692Z,11.12
2018-03-25T09:35:20.764Z,10.94
2018-03-25T09:36:20.402Z,10.94
2018-03-25T09:37:20.797Z,10.89
2018-03-25T09:38:20.643Z,10.92
2018-03-25T09:39:20.651Z,10.82
2018-03-25T09:40:20.528Z,10.86
2018-03-25T09:41:20.655Z,10.75
2018-03-25T09:42:20.379Z,10.71
2018-03-25T09:43:20.370Z,10.68
2018-03-25T09:44:20.624Z,10.72
2018-03-25T09:45:20.624Z,10.69
2018-03-25T09:46:20.623Z,10.72
2018-03-25T09:47:20.631Z,10.71
2018-03-25T09:48:20.360Z,10.71
2018-03-25T09:49:20.138Z,10.63
2018-03-25T09:50:20.604Z,10.53
2018-03-25T09:51:20.361Z,10.56
2018-03-25T09:52:20.609Z,10.42
2018-03-25T09:53:20.471Z,10.37
2018-03-25T09:54:20.345Z,10.38
2018-03-25T09:55:20.394Z,10.41
2018-03-25T09:56:20.358Z,10.57
2018-03-25T09:57:20.370Z,10.51
2018-03-25T09:58:20.625Z,10.57
2018-03-25T09:59:26.093Z,10.59
2018-03-25T10:00:20.092Z,10.74
2018-03-25T10:01:20.134Z,10.74
2018-03-25T10:02:20.320Z,10.86
2018-03-25T10:03:20.587Z,10.9
2018-03-25T10:04:20.574Z,10.96
2018-03-25T10:05:20.435Z,10.82
2018-03-25T10:06:20.311Z,10.79
2018-03-25T10:07:20.622Z,10.82
2018-03-25T10:08:20.564Z,10.81
2018-03-25T10:09:20.048Z,10.86
2018-03-25T10:10:20.554Z,10.86
2018-03-25T10:11:20.300Z,10.96
2018-03-25T10:12:20.553Z,11.18
2018-03-25T10:13:20.299Z,11.36
2018-03-25T10:14:20.284Z,11.44
2018-03-25T10:15:20.921Z,11.41
2018-03-25T10:16:20.566Z,11.59
2018-03-25T10:17:20.026Z,11.75
2018-03-25T10:18:20.285Z,11.86
2018-03-25T10:19:20.416Z,11.77
2018-03-25T10:20:20.605Z,11.68
2018-03-25T10:21:20.524Z,11.59
2018-03-25T10:22:20.532Z,11.48
2018-03-25T10:23:20.263Z,11.3
2018-03-25T10:24:20.528Z,11.32
2018-03-25T10:25:20.786Z,11.25
2018-03-25T10:26:20.255Z,11.23
2018-03-25T10:57:07.036Z,11.84
2018-03-25T10:58:07.302Z,11.87
2018-03-25T10:59:07.027Z,11.84
2018-03-25T11:00:07.019Z,12.02
2018-03-25T11:01:07.021Z,12.04
2018-03-25T11:02:07.352Z,12.21
2018-03-25T11:03:07.027Z,12.25
2018-03-25T11:04:07.248Z,12.29
2018-03-25T11:05:07.244Z,12.37
2018-03-25T11:06:06.986Z,12.47
2018-03-25T11:07:06.976Z,12.5
2018-03-25T11:08:07.251Z,12.46
2018-03-25T11:09:06.971Z,12.49
2018-03-25T11:10:07.254Z,12.45
2018-03-25T11:11:06.998Z,12.64
2018-03-25T11:12:09.668Z,12.67
2018-03-25T11:13:06.966Z,12.79
2018-03-25T11:14:06.980Z,12.72
2018-03-25T11:15:06.701Z,12.79
2018-03-25T11:16:07.296Z,12.79
2018-03-25T11:17:07.209Z,12.78
2018-03-25T11:18:07.200Z,12.76
2018-03-25T11:19:07.196Z,12.7
2018-03-25T11:20:07.223Z,12.76
2018-03-25T11:21:07.007Z,12.8
2018-03-25T11:22:07.479Z,12.79
2018-03-25T11:23:06.925Z,12.72
2018-03-25T11:24:06.952Z,12.7
2018-03-25T11:25:06.919Z,12.62
2018-03-25T11:26:07.232Z,12.62
2018-03-25T11:27:07.801Z,12.62
2018-03-25T11:28:06.918Z,12.64
2018-03-25T11:29:07.193Z,12.78
2018-03-25T11:30:07.191Z,12.78
2018-03-25T11:31:07.290Z,12.8
2018-03-25T11:32:07.179Z,12.83
2018-03-25T11:33:06.906Z,12.94
2018-03-25T11:34:07.166Z,13.01
2018-03-25T11:35:07.182Z,12.95
2018-03-25T11:36:07.171Z,13
2018-03-25T11:37:06.648Z,13.08
2018-03-25T11:38:07.166Z,13.22
2018-03-25T11:39:07.173Z,13.35
2018-03-25T11:40:06.907Z,13.39
2018-03-25T11:41:06.660Z,13.52
2018-03-25T11:42:09.243Z,13.49
2018-03-25T11:43:07.174Z,13.49
2018-03-25T11:44:07.166Z,13.5
2018-03-25T11:45:06.910Z,13.37
2018-03-25T11:46:07.198Z,13.31
2018-03-25T11:47:06.901Z,13.22
2018-03-25T11:48:06.700Z,13.18
2018-03-25T11:49:06.900Z,13.28
2018-03-25T11:50:07.167Z,13.2
2018-03-25T11:51:06.916Z,13.23
2018-03-25T11:52:06.899Z,13.09
2018-03-25T11:53:06.890Z,13.11
2018-03-25T11:54:07.131Z,13.09
2018-03-25T11:55:06.616Z,13.03
2018-03-25T11:56:07.182Z,12.98
2018-03-25T11:57:06.869Z,13.05
2018-03-25T11:58:07.162Z,13.18
2018-03-25T11:59:06.865Z,13.19
2018-03-25T12:00:07.121Z,13.15
2018-03-25T12:01:07.212Z,13.25
2018-03-25T12:02:07.125Z,13.37
2018-03-25T12:03:07.120Z,13.41
2018-03-25T12:04:06.878Z,13.44
2018-03-25T12:05:06.911Z,13.44
2018-03-25T12:06:07.122Z,13.46
2018-03-25T12:07:06.855Z,13.49
2018-03-25T12:08:06.879Z,13.35
2018-03-25T12:09:07.107Z,13.39
2018-03-25T12:10:06.871Z,13.35
2018-03-25T12:11:06.872Z,13.39
2018-03-25T12:12:07.108Z,13.46
2018-03-25T12:13:06.597Z,13.44
2018-03-25T12:14:07.122Z,13.42
2018-03-25T12:15:06.599Z,13.39
2018-03-25T12:16:06.855Z,13.47
2018-03-25T12:17:06.854Z,13.52
2018-03-25T12:18:07.118Z,13.44
2018-03-25T12:19:06.840Z,13.57
2018-03-25T12:20:06.846Z,13.56
2018-03-25T12:21:06.901Z,13.7
2018-03-25T12:22:06.834Z,13.67
2018-03-25T12:23:07.112Z,13.7
2018-03-25T12:24:06.861Z,13.56
2018-03-25T12:25:06.860Z,13.54
2018-03-25T12:26:07.082Z,13.53
2018-03-25T12:27:07.002Z,13.68
2018-03-25T12:28:07.638Z,13.71
2018-03-25T12:29:06.839Z,13.75
2018-03-25T12:30:07.079Z,13.83
2018-03-25T12:31:07.080Z,13.77
2018-03-25T12:32:06.821Z,13.7
2018-03-25T12:33:07.514Z,13.67
2018-03-25T12:34:06.830Z,13.53
2018-03-25T12:35:07.202Z,13.57
2018-03-25T12:36:06.817Z,13.52
2018-03-25T12:37:06.562Z,13.47
2018-03-25T12:38:07.172Z,13.57
2018-03-25T12:39:07.088Z,13.52
2018-03-25T12:40:06.823Z,13.62
2018-03-25T12:41:07.078Z,13.57
2018-03-25T12:42:07.065Z,13.7
2018-03-25T12:43:07.465Z,13.7
2018-03-25T12:44:06.574Z,13.72
2018-03-25T12:45:06.804Z,13.57
2018-03-25T12:46:06.563Z,13.57
2018-03-25T12:47:06.846Z,13.5
2018-03-25T12:48:06.807Z,13.47
2018-03-25T12:49:06.552Z,13.57
2018-03-25T12:50:07.068Z,13.57
2018-03-25T12:51:07.226Z,13.68
2018-03-25T12:52:06.807Z,13.67
2018-03-25T12:53:06.810Z,13.57
2018-03-25T12:54:06.824Z,13.62
2018-03-25T12:55:06.901Z,13.56
2018-03-25T12:56:06.885Z,13.56
2018-03-25T12:57:06.792Z,13.54
2018-03-25T12:58:07.049Z,13.59
2018-03-25T12:59:06.786Z,13.56
2018-03-25T13:00:06.791Z,13.71
2018-03-25T13:01:06.790Z,13.72
2018-03-25T13:02:07.041Z,13.6
2018-03-25T13:03:06.786Z,13.71
2018-03-25T13:04:06.784Z,13.78
2018-03-25T13:05:07.044Z,13.75
2018-03-25T13:06:06.788Z,13.85
2018-03-25T13:07:07.031Z,13.93
2018-03-25T13:08:06.777Z,14
2018-03-25T13:09:07.035Z,13.92
2018-03-25T13:10:07.087Z,14.12
2018-03-25T13:11:06.774Z,14.18
2018-03-25T13:12:06.772Z,14.18
2018-03-25T13:13:06.980Z,14.23
2018-03-25T13:14:06.773Z,14.25
2018-03-25T13:15:06.771Z,14.2
2018-03-25T13:16:07.031Z,14.11
2018-03-25T13:17:06.766Z,14.08
2018-03-25T13:18:06.789Z,14
2018-03-25T13:19:06.771Z,13.87
2018-03-25T13:20:06.767Z,13.85
2018-03-25T13:21:07.055Z,13.85
2018-03-25T13:22:07.019Z,13.96
2018-03-25T13:23:06.781Z,13.9
2018-03-25T13:24:06.768Z,13.86
2018-03-25T13:25:07.021Z,13.87
2018-03-25T13:26:06.773Z,13.79
2018-03-25T13:27:07.022Z,13.83
2018-03-25T13:28:07.025Z,13.92
2018-03-25T13:29:06.818Z,14
2018-03-25T13:30:06.823Z,13.93
2018-03-25T13:31:06.529Z,13.97
2018-03-25T13:32:07.034Z,14.08
2018-03-25T13:33:06.783Z,13.99
2018-03-25T13:34:06.761Z,13.97
2018-03-25T13:35:06.530Z,14
2018-03-25T13:36:07.175Z,14.05
2018-03-25T13:37:06.783Z,14
2018-03-25T13:38:07.027Z,14.11
2018-03-25T13:39:06.764Z,14.17
2018-03-25T13:40:06.799Z,14.18
2018-03-25T13:41:06.803Z,14.23
2018-03-25T13:42:06.762Z,14.17
2018-03-25T13:43:08.002Z,14.36
2018-03-25T13:44:06.999Z,14.25
2018-03-25T13:45:06.578Z,14.29
2018-03-25T13:46:06.993Z,14.35
2018-03-25T13:47:07.006Z,14.44
2018-03-25T13:48:06.992Z,14.44
2018-03-25T13:49:07.068Z,14.43
2018-03-25T13:50:07.008Z,14.36